sensor_id;sensor_type;location;lat;lon;timestamp;pressure;altitude;pressure_sealevel;temperature;humidity
61119;BME280;51448;51.660;5.824;2023-05-23T00:00:41;101735.41;;;15.16;100.00
61119;BME280;51448;51.660;5.824;2023-05-23T00:03:29;101737.28;;;15.12;100.00
61119;BME280;51448;51.660;5.824;2023-05-23T00:06:19;101724.09;;;15.11;100.00
61119;BME280;51448;51.660;5.824;2023-05-23T00:09:07;101732.19;;;15.06;100.00
61119;BME280;51448;51.660;5.824;2023-05-23T00:11:55;101727.78;;;15.05;100.00
61119;BME280;51448;51.660;5.824;2023-05-23T00:14:43;101724.41;;;15.01;100.00
61119;BME280;51448;51.660;5.824;2023-05-23T00:17:31;101727.97;;;15.00;100.00
61119;BME280;51448;51.660;5.824;2023-05-23T00:20:19;101730.59;;;15.00;100.00
61119;BME280;51448;51.660;5.824;2023-05-23T00:23:11;101731.41;;;15.02;100.00
61119;BME280;51448;51.660;5.824;2023-05-23T00:26:06;101738.50;;;15.02;100.00
61119;BME280;51448;51.660;5.824;2023-05-23T00:28:54;101738.41;;;15.05;100.00
61119;BME280;51448;51.660;5.824;2023-05-23T00:31:43;101734.81;;;15.07;100.00
61119;BME280;51448;51.660;5.824;2023-05-23T00:34:34;101741.03;;;15.05;100.00
61119;BME280;51448;51.660;5.824;2023-05-23T00:37:24;101737.44;;;15.07;100.00
61119;BME280;51448;51.660;5.824;2023-05-23T00:40:12;101749.72;;;15.10;100.00
61119;BME280;51448;51.660;5.824;2023-05-23T00:43:00;101743.56;;;15.09;100.00
61119;BME280;51448;51.660;5.824;2023-05-23T00:45:48;101747.13;;;15.08;100.00
61119;BME280;51448;51.660;5.824;2023-05-23T00:48:36;101756.84;;;15.08;100.00
61119;BME280;51448;51.660;5.824;2023-05-23T00:51:25;101752.47;;;15.07;100.00
61119;BME280;51448;51.660;5.824;2023-05-23T00:54:17;101747.22;;;15.05;100.00
61119;BME280;51448;51.660;5.824;2023-05-23T00:57:10;101746.34;;;15.05;100.00
61119;BME280;51448;51.660;5.824;2023-05-23T00:59:59;101750.00;;;15.01;100.00
61119;BME280;51448;51.660;5.824;2023-05-23T01:02:48;101747.47;;;14.98;100.00
61119;BME280;51448;51.660;5.824;2023-05-23T01:05:40;101753.66;;;14.97;100.00
61119;BME280;51448;51.660;5.824;2023-05-23T01:08:28;101743.97;;;14.97;100.00
61119;BME280;51448;51.660;5.824;2023-05-23T01:11:28;101743.88;;;14.99;100.00
61119;BME280;51448;51.660;5.824;2023-05-23T01:14:32;101752.78;;;14.98;100.00
61119;BME280;51448;51.660;5.824;2023-05-23T01:17:34;101755.47;;;14.96;100.00
61119;BME280;51448;51.660;5.824;2023-05-23T01:20:34;101754.59;;;14.96;100.00
61119;BME280;51448;51.660;5.824;2023-05-23T01:29:56;101758.44;;;14.85;100.00
61119;BME280;51448;51.660;5.824;2023-05-23T01:32:47;101760.28;;;14.83;100.00
61119;BME280;51448;51.660;5.824;2023-05-23T01:35:40;101766.56;;;14.81;100.00
61119;BME280;51448;51.660;5.824;2023-05-23T01:38:30;101770.09;;;14.80;100.00
61119;BME280;51448;51.660;5.824;2023-05-23T01:41:19;101771.94;;;14.78;100.00
61119;BME280;51448;51.660;5.824;2023-05-23T01:44:07;101764.16;;;14.72;100.00
61119;BME280;51448;51.660;5.824;2023-05-23T01:46:56;101777.53;;;14.68;100.00
61119;BME280;51448;51.660;5.824;2023-05-23T01:49:44;101774.09;;;14.65;100.00
61119;BME280;51448;51.660;5.824;2023-05-23T01:52:35;101786.56;;;14.60;100.00
61119;BME280;51448;51.660;5.824;2023-05-23T01:55:26;101784.94;;;14.56;100.00
61119;BME280;51448;51.660;5.824;2023-05-23T01:58:14;101783.22;;;14.53;100.00
61119;BME280;51448;51.660;5.824;2023-05-23T02:01:04;101782.44;;;14.49;100.00
61119;BME280;51448;51.660;5.824;2023-05-23T02:03:52;101786.91;;;14.47;100.00
61119;BME280;51448;51.660;5.824;2023-05-23T02:06:40;101788.72;;;14.45;100.00
61119;BME280;51448;51.660;5.824;2023-05-23T02:09:32;101795.00;;;14.43;100.00
61119;BME280;51448;51.660;5.824;2023-05-23T02:12:20;101792.44;;;14.40;100.00
61119;BME280;51448;51.660;5.824;2023-05-23T02:15:08;101788.91;;;14.39;100.00
61119;BME280;51448;51.660;5.824;2023-05-23T02:17:56;101792.47;;;14.38;100.00
61119;BME280;51448;51.660;5.824;2023-05-23T02:20:45;101799.59;;;14.36;100.00
61119;BME280;51448;51.660;5.824;2023-05-23T02:23:32;101789.06;;;14.35;100.00
61119;BME280;51448;51.660;5.824;2023-05-23T02:26:20;101794.38;;;14.33;100.00
61119;BME280;51448;51.660;5.824;2023-05-23T02:29:08;101794.47;;;14.30;100.00
61119;BME280;51448;51.660;5.824;2023-05-23T02:31:56;101797.19;;;14.27;100.00
61119;BME280;51448;51.660;5.824;2023-05-23T02:34:44;101801.63;;;14.26;100.00
61119;BME280;51448;51.660;5.824;2023-05-23T02:37:33;101807.88;;;14.24;100.00
61119;BME280;51448;51.660;5.824;2023-05-23T02:40:21;101810.59;;;14.21;100.00
61119;BME280;51448;51.660;5.824;2023-05-23T02:43:09;101807.13;;;14.19;100.00
61119;BME280;51448;51.660;5.824;2023-05-23T02:45:57;101808.94;;;14.17;100.00
61119;BME280;51448;51.660;5.824;2023-05-23T02:48:44;101806.44;;;14.12;100.00
61119;BME280;51448;51.660;5.824;2023-05-23T02:51:32;101803.81;;;14.11;100.00
61119;BME280;51448;51.660;5.824;2023-05-23T02:54:20;101809.22;;;14.07;100.00
61119;BME280;51448;51.660;5.824;2023-05-23T02:57:08;101805.72;;;14.07;100.00
61119;BME280;51448;51.660;5.824;2023-05-23T02:59:59;101807.56;;;14.03;100.00
61119;BME280;51448;51.660;5.824;2023-05-23T03:02:47;101805.81;;;14.02;100.00
61119;BME280;51448;51.660;5.824;2023-05-23T03:05:35;101804.09;;;14.01;100.00
61119;BME280;51448;51.660;5.824;2023-05-23T03:08:24;101797.94;;;14.01;100.00
61119;BME280;51448;51.660;5.824;2023-05-23T03:11:12;101812.88;;;14.02;100.00
61119;BME280;51448;51.660;5.824;2023-05-23T03:13:59;101809.38;;;14.01;100.00
61119;BME280;51448;51.660;5.824;2023-05-23T03:16:47;101817.31;;;14.01;100.00
61119;BME280;51448;51.660;5.824;2023-05-23T03:19:35;101814.72;;;13.98;100.00
61119;BME280;51448;51.660;5.824;2023-05-23T03:22:23;101806.88;;;13.97;100.00
61119;BME280;51448;51.660;5.824;2023-05-23T03:25:14;101810.41;;;13.96;100.00
61119;BME280;51448;51.660;5.824;2023-05-23T03:28:03;101819.25;;;13.95;100.00
61119;BME280;51448;51.660;5.824;2023-05-23T03:30:50;101821.00;;;13.94;100.00
61119;BME280;51448;51.660;5.824;2023-05-23T03:33:39;101825.47;;;13.92;100.00
61119;BME280;51448;51.660;5.824;2023-05-23T03:36:27;101838.66;;;13.94;100.00
61119;BME280;51448;51.660;5.824;2023-05-23T03:39:15;101820.28;;;13.89;100.00
61119;BME280;51448;51.660;5.824;2023-05-23T03:42:03;101827.38;;;13.87;100.00
61119;BME280;51448;51.660;5.824;2023-05-23T03:44:51;101834.47;;;13.86;100.00
61119;BME280;51448;51.660;5.824;2023-05-23T03:47:39;101831.88;;;13.83;100.00
61119;BME280;51448;51.660;5.824;2023-05-23T03:50:27;101832.81;;;13.82;100.00
61119;BME280;51448;51.660;5.824;2023-05-23T03:53:16;101838.09;;;13.82;100.00
61119;BME280;51448;51.660;5.824;2023-05-23T03:56:04;101836.31;;;13.83;100.00
61119;BME280;51448;51.660;5.824;2023-05-23T03:58:53;101848.59;;;13.84;100.00
61119;BME280;51448;51.660;5.824;2023-05-23T04:01:41;101837.13;;;13.85;100.00
61119;BME280;51448;51.660;5.824;2023-05-23T04:04:29;101838.84;;;13.86;100.00
61119;BME280;51448;51.660;5.824;2023-05-23T04:07:18;101838.78;;;13.89;100.00
61119;BME280;51448;51.660;5.824;2023-05-23T04:10:07;101842.28;;;13.89;100.00
61119;BME280;51448;51.660;5.824;2023-05-23T04:12:56;101846.69;;;13.91;100.00
61119;BME280;51448;51.660;5.824;2023-05-23T04:15:45;101839.66;;;13.89;100.00
61119;BME280;51448;51.660;5.824;2023-05-23T04:18:34;101845.78;;;13.92;100.00
61119;BME280;51448;51.660;5.824;2023-05-23T04:21:26;101844.81;;;13.94;100.00
61119;BME280;51448;51.660;5.824;2023-05-23T04:24:24;101845.66;;;13.96;100.00
61119;BME280;51448;51.660;5.824;2023-05-23T04:27:13;101846.56;;;13.95;100.00
61119;BME280;51448;51.660;5.824;2023-05-23T04:30:02;101852.66;;;13.99;100.00
61119;BME280;51448;51.660;5.824;2023-05-23T04:32:51;101856.16;;;13.99;100.00
61119;BME280;51448;51.660;5.824;2023-05-23T04:35:40;101859.63;;;14.01;100.00
61119;BME280;51448;51.660;5.824;2023-05-23T04:38:29;101859.53;;;14.04;100.00
61119;BME280;51448;51.660;5.824;2023-05-23T04:41:18;101871.00;;;14.05;100.00
61119;BME280;51448;51.660;5.824;2023-05-23T04:44:30;101870.09;;;14.06;100.00
61119;BME280;51448;51.660;5.824;2023-05-23T04:47:41;101870.06;;;14.07;100.00
61119;BME280;51448;51.660;5.824;2023-05-23T04:50:36;101867.41;;;14.07;100.00
61119;BME280;51448;51.660;5.824;2023-05-23T04:53:24;101877.06;;;14.08;100.00
61119;BME280;51448;51.660;5.824;2023-05-23T04:56:13;101886.75;;;14.09;100.00
61119;BME280;51448;51.660;5.824;2023-05-23T04:59:02;101876.13;;;14.11;100.00
61119;BME280;51448;51.660;5.824;2023-05-23T05:01:50;101888.41;;;14.14;100.00
61119;BME280;51448;51.660;5.824;2023-05-23T05:04:39;101887.56;;;14.13;100.00
61119;BME280;51448;51.660;5.824;2023-05-23T05:07:27;101882.31;;;14.10;100.00
61119;BME280;51448;51.660;5.824;2023-05-23T05:10:15;101887.75;;;14.05;100.00
61119;BME280;51448;51.660;5.824;2023-05-23T05:13:04;101898.22;;;14.08;100.00
61119;BME280;51448;51.660;5.824;2023-05-23T05:16:01;101900.09;;;14.05;100.00
61119;BME280;51448;51.660;5.824;2023-05-23T05:18:50;101908.09;;;14.02;100.00
61119;BME280;51448;51.660;5.824;2023-05-23T05:21:39;101909.94;;;13.98;100.00
61119;BME280;51448;51.660;5.824;2023-05-23T05:24:27;101910.91;;;13.96;100.00
61119;BME280;51448;51.660;5.824;2023-05-23T05:27:16;101916.31;;;13.91;100.00
61119;BME280;51448;51.660;5.824;2023-05-23T05:30:08;101912.91;;;13.86;100.00
61119;BME280;51448;51.660;5.824;2023-05-23T05:33:16;101914.00;;;13.77;100.00
61119;BME280;51448;51.660;5.824;2023-05-23T05:36:05;101919.41;;;13.73;100.00
61119;BME280;51448;51.660;5.824;2023-05-23T05:38:53;101918.56;;;13.71;100.00
61119;BME280;51448;51.660;5.824;2023-05-23T05:41:41;101925.66;;;13.70;100.00
61119;BME280;51448;51.660;5.824;2023-05-23T05:44:30;101935.31;;;13.69;100.00
61119;BME280;51448;51.660;5.824;2023-05-23T05:47:17;101937.22;;;13.64;100.00
61119;BME280;51448;51.660;5.824;2023-05-23T05:50:06;101946.13;;;13.60;100.00
61119;BME280;51448;51.660;5.824;2023-05-23T05:52:56;101946.19;;;13.57;100.00
61119;BME280;51448;51.660;5.824;2023-05-23T05:55:43;101947.16;;;13.53;100.00
61119;BME280;51448;51.660;5.824;2023-05-23T05:58:32;101956.97;;;13.48;100.00
61119;BME280;51448;51.660;5.824;2023-05-23T06:01:22;101947.34;;;13.45;100.00
61119;BME280;51448;51.660;5.824;2023-05-23T06:04:11;101955.28;;;13.45;100.00
61119;BME280;51448;51.660;5.824;2023-05-23T06:07:00;101948.31;;;13.41;100.00
61119;BME280;51448;51.660;5.824;2023-05-23T06:09:49;101958.91;;;13.40;100.00
61119;BME280;51448;51.660;5.824;2023-05-23T06:12:37;101956.38;;;13.35;100.00
61119;BME280;51448;51.660;5.824;2023-05-23T06:15:25;101960.84;;;13.32;100.00
61119;BME280;51448;51.660;5.824;2023-05-23T06:18:12;101964.44;;;13.27;100.00
61119;BME280;51448;51.660;5.824;2023-05-23T06:21:00;101977.66;;;13.27;100.00
61119;BME280;51448;51.660;5.824;2023-05-23T06:23:49;101976.81;;;13.25;100.00
61119;BME280;51448;51.660;5.824;2023-05-23T06:26:37;101978.63;;;13.23;100.00
61119;BME280;51448;51.660;5.824;2023-05-23T06:29:29;101988.25;;;13.24;100.00
61119;BME280;51448;51.660;5.824;2023-05-23T06:32:30;101988.38;;;13.20;100.00
61119;BME280;51448;51.660;5.824;2023-05-23T06:35:18;101993.66;;;13.18;100.00
61119;BME280;51448;51.660;5.824;2023-05-23T06:38:07;101989.31;;;13.17;100.00
61119;BME280;51448;51.660;5.824;2023-05-23T06:40:54;101991.03;;;13.18;100.00
61119;BME280;51448;51.660;5.824;2023-05-23T06:43:42;101993.63;;;13.21;100.00
61119;BME280;51448;51.660;5.824;2023-05-23T06:46:35;101993.53;;;13.26;100.00
61119;BME280;51448;51.660;5.824;2023-05-23T06:49:27;102001.44;;;13.26;100.00
61119;BME280;51448;51.660;5.824;2023-05-23T06:52:15;101997.09;;;13.25;100.00
61119;BME280;51448;51.660;5.824;2023-05-23T06:55:03;102006.72;;;13.27;100.00
61119;BME280;51448;51.660;5.824;2023-05-23T06:57:52;102009.34;;;13.27;100.00
61119;BME280;51448;51.660;5.824;2023-05-23T07:00:41;102015.53;;;13.26;100.00
61119;BME280;51448;51.660;5.824;2023-05-23T07:03:39;102020.03;;;13.23;100.00
61119;BME280;51448;51.660;5.824;2023-05-23T07:06:29;102011.31;;;13.16;100.00
61119;BME280;51448;51.660;5.824;2023-05-23T07:09:18;102016.72;;;13.12;100.00
61119;BME280;51448;51.660;5.824;2023-05-23T07:12:06;102025.53;;;13.11;100.00
61119;BME280;51448;51.660;5.824;2023-05-23T07:14:57;102022.06;;;13.08;100.00
61119;BME280;51448;51.660;5.824;2023-05-23T07:17:45;102032.56;;;13.10;100.00
61119;BME280;51448;51.660;5.824;2023-05-23T07:20:33;102034.34;;;13.11;100.00
61119;BME280;51448;51.660;5.824;2023-05-23T07:23:33;102039.53;;;13.16;100.00
61119;BME280;51448;51.660;5.824;2023-05-23T07:26:21;102042.13;;;13.19;100.00
61119;BME280;51448;51.660;5.824;2023-05-23T07:29:14;102043.81;;;13.23;99.66
61119;BME280;51448;51.660;5.824;2023-05-23T07:32:04;102034.84;;;13.32;99.52
61119;BME280;51448;51.660;5.824;2023-05-23T07:34:52;102035.44;;;13.44;98.73
61119;BME280;51448;51.660;5.824;2023-05-23T07:37:40;102035.16;;;13.60;98.09
61119;BME280;51448;51.660;5.824;2023-05-23T07:40:28;102047.19;;;13.72;97.33
61119;BME280;51448;51.660;5.824;2023-05-23T07:43:16;102039.09;;;13.79;96.79
61119;BME280;51448;51.660;5.824;2023-05-23T07:46:04;102052.16;;;13.87;95.12
61119;BME280;51448;51.660;5.824;2023-05-23T07:48:52;102049.28;;;13.96;95.30
61119;BME280;51448;51.660;5.824;2023-05-23T07:51:40;102057.63;;;14.17;94.88
61119;BME280;51448;51.660;5.824;2023-05-23T07:54:29;102057.53;;;14.60;93.24
61119;BME280;51448;51.660;5.824;2023-05-23T07:57:19;102048.63;;;14.96;92.17
61119;BME280;51448;51.660;5.824;2023-05-23T08:00:11;102073.03;;;15.07;89.05
61119;BME280;51448;51.660;5.824;2023-05-23T08:03:02;102057.72;;;15.18;86.96
61119;BME280;51448;51.660;5.824;2023-05-23T08:05:57;102055.97;;;15.17;86.74
61119;BME280;51448;51.660;5.824;2023-05-23T08:08:47;102058.88;;;15.09;87.25
61119;BME280;51448;51.660;5.824;2023-05-23T08:11:35;102068.75;;;15.03;87.56
61119;BME280;51448;51.660;5.824;2023-05-23T08:14:23;102075.84;;;15.01;87.58
61119;BME280;51448;51.660;5.824;2023-05-23T08:17:35;102072.47;;;14.96;87.30
61119;BME280;51448;51.660;5.824;2023-05-23T08:20:23;102090.16;;;14.95;88.29
61119;BME280;51448;51.660;5.824;2023-05-23T08:23:19;102076.78;;;15.00;87.96
61119;BME280;51448;51.660;5.824;2023-05-23T08:26:07;102075.84;;;15.01;88.47
61119;BME280;51448;51.660;5.824;2023-05-23T08:28:55;102086.19;;;15.12;88.13
61119;BME280;51448;51.660;5.824;2023-05-23T08:31:44;102080.06;;;15.09;87.63
61119;BME280;51448;51.660;5.824;2023-05-23T08:34:32;102088.03;;;15.08;88.17
61119;BME280;51448;51.660;5.824;2023-05-23T08:37:19;102089.03;;;15.04;87.86
61119;BME280;51448;51.660;5.824;2023-05-23T08:40:13;102085.59;;;15.00;87.72
61119;BME280;51448;51.660;5.824;2023-05-23T08:43:14;102090.00;;;15.01;88.16
61119;BME280;51448;51.660;5.824;2023-05-23T08:46:03;102086.38;;;15.04;88.28
61119;BME280;51448;51.660;5.824;2023-05-23T08:48:53;102092.53;;;15.06;87.38
61119;BME280;51448;51.660;5.824;2023-05-23T08:51:45;102089.84;;;15.07;88.22
61119;BME280;51448;51.660;5.824;2023-05-23T08:54:41;102092.34;;;15.12;88.42
61119;BME280;51448;51.660;5.824;2023-05-23T08:57:30;102094.97;;;15.14;88.36
61119;BME280;51448;51.660;5.824;2023-05-23T09:00:27;102100.03;;;15.21;89.19
61119;BME280;51448;51.660;5.824;2023-05-23T09:03:16;102100.53;;;15.36;87.91
61119;BME280;51448;51.660;5.824;2023-05-23T09:06:22;102101.63;;;15.60;86.49
61119;BME280;51448;51.660;5.824;2023-05-23T09:09:10;102109.91;;;15.80;85.57
61119;BME280;51448;51.660;5.824;2023-05-23T09:11:59;102117.53;;;15.91;82.29
61119;BME280;51448;51.660;5.824;2023-05-23T09:14:49;102118.34;;;15.93;82.37
61119;BME280;51448;51.660;5.824;2023-05-23T09:17:40;102114.63;;;16.00;82.47
61119;BME280;51448;51.660;5.824;2023-05-23T09:20:29;102116.34;;;16.01;82.03
61119;BME280;51448;51.660;5.824;2023-05-23T09:23:22;102119.13;;;15.97;79.74
61119;BME280;51448;51.660;5.824;2023-05-23T09:26:12;102124.63;;;15.91;79.50
61119;BME280;51448;51.660;5.824;2023-05-23T09:29:00;102124.72;;;15.87;78.18
61119;BME280;51448;51.660;5.824;2023-05-23T09:31:51;102117.72;;;16.15;77.48
61119;BME280;51448;51.660;5.824;2023-05-23T09:35:01;102127.44;;;16.42;77.48
61119;BME280;51448;51.660;5.824;2023-05-23T09:37:52;102125.41;;;16.50;75.66
61119;BME280;51448;51.660;5.824;2023-05-23T09:40:44;102123.84;;;16.45;76.56
61119;BME280;51448;51.660;5.824;2023-05-23T09:43:32;102126.59;;;16.42;77.11
61119;BME280;51448;51.660;5.824;2023-05-23T09:46:20;102123.97;;;16.40;77.13
61119;BME280;51448;51.660;5.824;2023-05-23T09:49:16;102123.97;;;16.40;76.49
61119;BME280;51448;51.660;5.824;2023-05-23T09:52:09;102127.31;;;16.47;76.33
61119;BME280;51448;51.660;5.824;2023-05-23T09:54:56;102134.19;;;16.53;76.49
61119;BME280;51448;51.660;5.824;2023-05-23T09:58:10;102129.59;;;16.59;74.47
61119;BME280;51448;51.660;5.824;2023-05-23T10:01:13;102132.84;;;16.67;74.57
61119;BME280;51448;51.660;5.824;2023-05-23T10:04:12;102134.63;;;16.67;73.75
61119;BME280;51448;51.660;5.824;2023-05-23T10:07:23;102126.66;;;16.67;74.09
61119;BME280;51448;51.660;5.824;2023-05-23T10:10:13;102130.84;;;16.74;74.51
61119;BME280;51448;51.660;5.824;2023-05-23T10:13:02;102136.25;;;16.71;73.81
61119;BME280;51448;51.660;5.824;2023-05-23T10:19:09;102143.53;;;16.66;71.83
61119;BME280;51448;51.660;5.824;2023-05-23T10:22:07;102138.56;;;16.55;72.59
61119;BME280;51448;51.660;5.824;2023-05-23T10:24:56;102142.78;;;16.61;72.97
61119;BME280;51448;51.660;5.824;2023-05-23T10:27:47;102145.97;;;16.72;73.60
61119;BME280;51448;51.660;5.824;2023-05-23T10:30:38;102143.94;;;16.80;73.81
61119;BME280;51448;51.660;5.824;2023-05-23T10:33:33;102149.16;;;16.83;71.85
61119;BME280;51448;51.660;5.824;2023-05-23T10:36:32;102148.88;;;16.93;71.77
61119;BME280;51448;51.660;5.824;2023-05-23T10:46:02;102142.75;;;17.41;68.71
61119;BME280;51448;51.660;5.824;2023-05-23T10:48:53;102137.13;;;17.50;67.50
61119;BME280;51448;51.660;5.824;2023-05-23T10:51:47;102137.34;;;17.67;66.20
61119;BME280;51448;51.660;5.824;2023-05-23T10:54:51;102133.81;;;17.67;66.03
61119;BME280;51448;51.660;5.824;2023-05-23T10:57:41;102139.09;;;17.68;66.13
61119;BME280;51448;51.660;5.824;2023-05-23T11:00:30;102136.88;;;17.80;66.14
61119;BME280;51448;51.660;5.824;2023-05-23T11:03:32;102136.22;;;17.98;66.50
61119;BME280;51448;51.660;5.824;2023-05-23T11:06:43;102137.34;;;18.15;64.95
61119;BME280;51448;51.660;5.824;2023-05-23T11:09:31;102129.81;;;18.26;64.17
61119;BME280;51448;51.660;5.824;2023-05-23T11:12:36;102139.03;;;18.39;61.31
61119;BME280;51448;51.660;5.824;2023-05-23T11:15:25;102132.81;;;18.40;61.44
61119;BME280;51448;51.660;5.824;2023-05-23T11:18:25;102135.72;;;18.34;62.07
61119;BME280;51448;51.660;5.824;2023-05-23T11:21:15;102139.13;;;18.38;61.77
61119;BME280;51448;51.660;5.824;2023-05-23T11:24:03;102135.09;;;18.27;62.23
61119;BME280;51448;51.660;5.824;2023-05-23T11:26:52;102134.22;;;18.27;62.46
61119;BME280;51448;51.660;5.824;2023-05-23T11:29:41;102124.25;;;18.32;61.80
61119;BME280;51448;51.660;5.824;2023-05-23T11:32:30;102136.63;;;18.33;61.55
61119;BME280;51448;51.660;5.824;2023-05-23T11:35:18;102135.97;;;18.28;57.95
61119;BME280;51448;51.660;5.824;2023-05-23T11:38:08;102144.94;;;18.25;60.37
61119;BME280;51448;51.660;5.824;2023-05-23T11:40:59;102145.66;;;18.29;59.51
61119;BME280;51448;51.660;5.824;2023-05-23T11:43:50;102134.91;;;18.32;60.15
61119;BME280;51448;51.660;5.824;2023-05-23T11:46:39;102141.28;;;18.28;61.53
61119;BME280;51448;51.660;5.824;2023-05-23T11:49:29;102134.41;;;18.44;62.60
61119;BME280;51448;51.660;5.824;2023-05-23T11:52:17;102137.13;;;18.65;61.41
61119;BME280;51448;51.660;5.824;2023-05-23T11:55:06;102137.25;;;18.62;58.93
61119;BME280;51448;51.660;5.824;2023-05-23T11:57:57;102134.03;;;18.54;60.58
61119;BME280;51448;51.660;5.824;2023-05-23T12:00:45;102156.59;;;18.45;60.35
61119;BME280;51448;51.660;5.824;2023-05-23T12:03:43;102138.38;;;18.34;58.71
61119;BME280;51448;51.660;5.824;2023-05-23T12:06:33;102146.78;;;18.45;59.24
61119;BME280;51448;51.660;5.824;2023-05-23T12:09:21;102135.47;;;18.62;60.05
61119;BME280;51448;51.660;5.824;2023-05-23T12:12:09;102149.16;;;18.53;58.92
61119;BME280;51448;51.660;5.824;2023-05-23T12:14:58;102140.66;;;18.43;58.84
61119;BME280;51448;51.660;5.824;2023-05-23T12:17:47;102157.34;;;18.48;59.54
61119;BME280;51448;51.660;5.824;2023-05-23T12:20:37;102153.38;;;18.59;61.12
61119;BME280;51448;51.660;5.824;2023-05-23T12:23:26;102154.13;;;18.62;60.69
61119;BME280;51448;51.660;5.824;2023-05-23T12:26:15;102147.09;;;18.60;58.22
61119;BME280;51448;51.660;5.824;2023-05-23T12:29:03;102150.16;;;18.50;58.53
61119;BME280;51448;51.660;5.824;2023-05-23T12:31:51;102161.22;;;18.62;57.95
61119;BME280;51448;51.660;5.824;2023-05-23T12:34:42;102143.94;;;18.72;59.33
61119;BME280;51448;51.660;5.824;2023-05-23T12:37:30;102155.59;;;18.69;59.09
61119;BME280;51448;51.660;5.824;2023-05-23T12:40:18;102164.13;;;18.56;58.27
61119;BME280;51448;51.660;5.824;2023-05-23T12:43:08;102157.69;;;18.61;58.79
61119;BME280;51448;51.660;5.824;2023-05-23T12:45:58;102165.91;;;18.79;57.50
61119;BME280;51448;51.660;5.824;2023-05-23T12:48:46;102167.13;;;18.92;57.03
61119;BME280;51448;51.660;5.824;2023-05-23T12:51:34;102165.94;;;18.99;56.42
61119;BME280;51448;51.660;5.824;2023-05-23T12:54:22;102161.84;;;18.90;55.93
61119;BME280;51448;51.660;5.824;2023-05-23T12:57:09;102171.84;;;18.85;56.55
61119;BME280;51448;51.660;5.824;2023-05-23T12:59:57;102186.50;;;18.74;57.15
61119;BME280;51448;51.660;5.824;2023-05-23T13:02:45;102184.69;;;18.74;57.51
61119;BME280;51448;51.660;5.824;2023-05-23T13:05:33;102180.75;;;18.84;58.16
61119;BME280;51448;51.660;5.824;2023-05-23T13:08:22;102183.88;;;18.96;56.97
61119;BME280;51448;51.660;5.824;2023-05-23T13:11:10;102178.81;;;19.10;56.35
61119;BME280;51448;51.660;5.824;2023-05-23T13:13:59;102173.50;;;19.30;54.84
61119;BME280;51448;51.660;5.824;2023-05-23T13:16:46;102167.34;;;19.49;54.61
61119;BME280;51448;51.660;5.824;2023-05-23T13:19:34;102174.34;;;19.52;54.89
61119;BME280;51448;51.660;5.824;2023-05-23T13:22:22;102168.97;;;19.33;54.10
61119;BME280;51448;51.660;5.824;2023-05-23T13:25:10;102167.19;;;19.11;53.71
61119;BME280;51448;51.660;5.824;2023-05-23T13:27:58;102169.22;;;19.06;54.70
61119;BME280;51448;51.660;5.824;2023-05-23T13:30:47;102171.75;;;19.29;54.66
61119;BME280;51448;51.660;5.824;2023-05-23T13:33:35;102174.13;;;19.36;53.30
61119;BME280;51448;51.660;5.824;2023-05-23T13:36:24;102179.81;;;19.07;53.40
61119;BME280;51448;51.660;5.824;2023-05-23T13:39:12;102176.72;;;18.74;53.87
61119;BME280;51448;51.660;5.824;2023-05-23T13:42:00;102187.69;;;18.44;54.69
61119;BME280;51448;51.660;5.824;2023-05-23T13:44:48;102186.97;;;18.17;55.57
61119;BME280;51448;51.660;5.824;2023-05-23T13:47:37;102188.88;;;17.90;56.23
61119;BME280;51448;51.660;5.824;2023-05-23T13:50:24;102183.91;;;17.79;57.10
61119;BME280;51448;51.660;5.824;2023-05-23T13:53:12;102178.13;;;17.93;57.64
61119;BME280;51448;51.660;5.824;2023-05-23T13:56:03;102188.66;;;18.20;57.46
61119;BME280;51448;51.660;5.824;2023-05-23T13:58:51;102188.59;;;18.43;56.88
61119;BME280;51448;51.660;5.824;2023-05-23T14:01:39;102181.97;;;18.54;56.28
61119;BME280;51448;51.660;5.824;2023-05-23T14:04:27;102184.28;;;18.63;54.08
61119;BME280;51448;51.660;5.824;2023-05-23T14:07:17;102189.19;;;18.74;53.14
61119;BME280;51448;51.660;5.824;2023-05-23T14:10:05;102187.25;;;18.77;52.57
61119;BME280;51448;51.660;5.824;2023-05-23T14:12:54;102180.84;;;18.83;52.42
61119;BME280;51448;51.660;5.824;2023-05-23T14:15:42;102180.97;;;18.80;52.38
61119;BME280;51448;51.660;5.824;2023-05-23T14:18:30;102190.63;;;18.60;51.96
61119;BME280;51448;51.660;5.824;2023-05-23T14:21:18;102187.47;;;18.27;52.87
61119;BME280;51448;51.660;5.824;2023-05-23T14:24:06;102188.75;;;18.17;53.53
61119;BME280;51448;51.660;5.824;2023-05-23T14:26:53;102184.69;;;18.30;55.07
61119;BME280;51448;51.660;5.824;2023-05-23T14:29:41;102187.31;;;18.54;55.09
61119;BME280;51448;51.660;5.824;2023-05-23T14:32:32;102191.91;;;18.72;54.90
61119;BME280;51448;51.660;5.824;2023-05-23T14:35:25;102197.06;;;18.55;53.57
61119;BME280;51448;51.660;5.824;2023-05-23T14:38:13;102196.59;;;18.21;53.87
61119;BME280;51448;51.660;5.824;2023-05-23T14:41:01;102191.31;;;17.96;54.78
61119;BME280;51448;51.660;5.824;2023-05-23T14:43:49;102194.56;;;17.79;55.57
61119;BME280;51448;51.660;5.824;2023-05-23T14:46:37;102197.28;;;17.78;56.16
61119;BME280;51448;51.660;5.824;2023-05-23T14:49:25;102191.31;;;17.96;55.72
61119;BME280;51448;51.660;5.824;2023-05-23T14:52:12;102195.53;;;18.02;55.46
61119;BME280;51448;51.660;5.824;2023-05-23T14:55:00;102197.38;;;18.00;55.65
61119;BME280;51448;51.660;5.824;2023-05-23T14:57:48;102198.84;;;17.85;54.56
61119;BME280;51448;51.660;5.824;2023-05-23T15:00:36;102188.38;;;17.79;54.52